sensor_id;sensor_type;location;lat;lon;timestamp;temperature;humidity
26224;DHT22;14820;48.682;8.890;2023-04-25T00:01:15;7.80;99.90
26224;DHT22;14820;48.682;8.890;2023-04-25T00:03:41;7.80;99.90
26224;DHT22;14820;48.682;8.890;2023-04-25T00:06:07;7.80;99.90
26224;DHT22;14820;48.682;8.890;2023-04-25T00:08:33;7.80;99.90
26224;DHT22;14820;48.682;8.890;2023-04-25T00:10:59;7.80;99.90
26224;DHT22;14820;48.682;8.890;2023-04-25T00:13:25;7.70;99.90
26224;DHT22;14820;48.682;8.890;2023-04-25T00:15:51;7.80;99.90
26224;DHT22;14820;48.682;8.890;2023-04-25T00:18:18;7.80;99.90
26224;DHT22;14820;48.682;8.890;2023-04-25T00:20:44;7.80;99.90
26224;DHT22;14820;48.682;8.890;2023-04-25T00:23:13;7.80;99.90
26224;DHT22;14820;48.682;8.890;2023-04-25T00:25:43;7.80;99.90
26224;DHT22;14820;48.682;8.890;2023-04-25T00:28:10;7.70;99.90
26224;DHT22;14820;48.682;8.890;2023-04-25T00:30:36;7.70;99.90
26224;DHT22;14820;48.682;8.890;2023-04-25T00:33:02;7.60;99.90
26224;DHT22;14820;48.682;8.890;2023-04-25T00:35:27;7.60;99.90
26224;DHT22;14820;48.682;8.890;2023-04-25T00:37:54;7.60;99.90
26224;DHT22;14820;48.682;8.890;2023-04-25T00:40:20;7.60;99.90
26224;DHT22;14820;48.682;8.890;2023-04-25T00:42:47;7.60;99.90
26224;DHT22;14820;48.682;8.890;2023-04-25T00:45:14;7.50;99.90
26224;DHT22;14820;48.682;8.890;2023-04-25T00:47:42;7.50;99.90
26224;DHT22;14820;48.682;8.890;2023-04-25T00:50:09;7.50;99.90
26224;DHT22;14820;48.682;8.890;2023-04-25T00:52:35;7.50;99.90
26224;DHT22;14820;48.682;8.890;2023-04-25T00:55:01;7.60;99.90
26224;DHT22;14820;48.682;8.890;2023-04-25T00:57:27;7.60;99.90
26224;DHT22;14820;48.682;8.890;2023-04-25T00:59:54;7.60;99.90
26224;DHT22;14820;48.682;8.890;2023-04-25T01:02:20;7.60;99.90
26224;DHT22;14820;48.682;8.890;2023-04-25T01:04:48;7.60;99.90
26224;DHT22;14820;48.682;8.890;2023-04-25T01:07:14;7.60;99.90
26224;DHT22;14820;48.682;8.890;2023-04-25T01:09:41;7.70;99.90
26224;DHT22;14820;48.682;8.890;2023-04-25T01:12:06;7.70;99.90
26224;DHT22;14820;48.682;8.890;2023-04-25T01:14:32;7.70;99.90
26224;DHT22;14820;48.682;8.890;2023-04-25T01:16:58;7.60;99.90
26224;DHT22;14820;48.682;8.890;2023-04-25T01:19:24;7.60;99.90
26224;DHT22;14820;48.682;8.890;2023-04-25T01:21:50;7.60;99.90
26224;DHT22;14820;48.682;8.890;2023-04-25T01:24:16;7.60;99.90
26224;DHT22;14820;48.682;8.890;2023-04-25T01:26:42;7.50;99.90
26224;DHT22;14820;48.682;8.890;2023-04-25T01:29:19;7.50;99.90
26224;DHT22;14820;48.682;8.890;2023-04-25T01:31:45;7.50;99.90
26224;DHT22;14820;48.682;8.890;2023-04-25T01:34:14;7.50;99.90
26224;DHT22;14820;48.682;8.890;2023-04-25T01:36:39;7.50;99.90
26224;DHT22;14820;48.682;8.890;2023-04-25T01:39:06;7.50;99.90
26224;DHT22;14820;48.682;8.890;2023-04-25T01:41:31;7.40;99.90
26224;DHT22;14820;48.682;8.890;2023-04-25T01:43:57;7.40;99.90
26224;DHT22;14820;48.682;8.890;2023-04-25T01:46:23;7.40;99.90
26224;DHT22;14820;48.682;8.890;2023-04-25T01:48:49;7.40;99.90
26224;DHT22;14820;48.682;8.890;2023-04-25T01:51:15;7.30;99.90
26224;DHT22;14820;48.682;8.890;2023-04-25T01:53:41;7.30;99.90
26224;DHT22;14820;48.682;8.890;2023-04-25T01:56:07;7.30;99.90
26224;DHT22;14820;48.682;8.890;2023-04-25T01:58:33;7.20;99.90
26224;DHT22;14820;48.682;8.890;2023-04-25T02:00:59;7.30;99.90
26224;DHT22;14820;48.682;8.890;2023-04-25T02:03:25;7.20;99.90
26224;DHT22;14820;48.682;8.890;2023-04-25T02:05:50;7.20;99.90
26224;DHT22;14820;48.682;8.890;2023-04-25T02:08:17;7.20;99.90
26224;DHT22;14820;48.682;8.890;2023-04-25T02:10:43;7.10;99.90
26224;DHT22;14820;48.682;8.890;2023-04-25T02:13:08;7.10;99.90
26224;DHT22;14820;48.682;8.890;2023-04-25T02:15:34;7.10;99.90
26224;DHT22;14820;48.682;8.890;2023-04-25T02:18:00;7.10;99.90
26224;DHT22;14820;48.682;8.890;2023-04-25T02:20:26;7.00;99.90
26224;DHT22;14820;48.682;8.890;2023-04-25T02:22:52;7.00;99.90
26224;DHT22;14820;48.682;8.890;2023-04-25T02:25:19;6.90;99.90
26224;DHT22;14820;48.682;8.890;2023-04-25T02:27:46;6.90;99.90
26224;DHT22;14820;48.682;8.890;2023-04-25T02:30:12;6.90;99.90
26224;DHT22;14820;48.682;8.890;2023-04-25T02:32:38;6.80;99.90
26224;DHT22;14820;48.682;8.890;2023-04-25T02:35:05;6.80;99.90
26224;DHT22;14820;48.682;8.890;2023-04-25T02:37:32;6.80;99.90
26224;DHT22;14820;48.682;8.890;2023-04-25T02:39:58;6.80;99.90
26224;DHT22;14820;48.682;8.890;2023-04-25T02:42:23;6.70;99.90
26224;DHT22;14820;48.682;8.890;2023-04-25T02:44:49;6.70;99.90
26224;DHT22;14820;48.682;8.890;2023-04-25T02:47:15;6.70;99.90
26224;DHT22;14820;48.682;8.890;2023-04-25T02:49:40;6.70;99.90
26224;DHT22;14820;48.682;8.890;2023-04-25T02:52:06;6.70;99.90
26224;DHT22;14820;48.682;8.890;2023-04-25T02:54:32;6.80;99.90
26224;DHT22;14820;48.682;8.890;2023-04-25T02:56:57;6.80;99.90
26224;DHT22;14820;48.682;8.890;2023-04-25T02:59:23;6.90;99.90
26224;DHT22;14820;48.682;8.890;2023-04-25T03:01:49;6.90;99.90
26224;DHT22;14820;48.682;8.890;2023-04-25T03:04:14;6.80;99.90
26224;DHT22;14820;48.682;8.890;2023-04-25T03:06:40;6.70;99.90
26224;DHT22;14820;48.682;8.890;2023-04-25T03:09:06;6.70;99.90
26224;DHT22;14820;48.682;8.890;2023-04-25T03:11:31;6.60;99.90
26224;DHT22;14820;48.682;8.890;2023-04-25T03:13:57;6.50;99.90
26224;DHT22;14820;48.682;8.890;2023-04-25T03:16:23;6.50;99.90
26224;DHT22;14820;48.682;8.890;2023-04-25T03:18:49;6.50;99.90
26224;DHT22;14820;48.682;8.890;2023-04-25T03:21:16;6.50;99.90
26224;DHT22;14820;48.682;8.890;2023-04-25T03:23:42;6.50;99.90
26224;DHT22;14820;48.682;8.890;2023-04-25T03:26:07;6.40;99.90
26224;DHT22;14820;48.682;8.890;2023-04-25T03:28:33;6.40;99.90
26224;DHT22;14820;48.682;8.890;2023-04-25T03:30:58;6.40;99.90
26224;DHT22;14820;48.682;8.890;2023-04-25T03:33:24;6.40;99.90
26224;DHT22;14820;48.682;8.890;2023-04-25T03:35:50;6.40;99.90
26224;DHT22;14820;48.682;8.890;2023-04-25T03:38:17;6.30;99.90
26224;DHT22;14820;48.682;8.890;2023-04-25T03:40:43;6.40;99.90
26224;DHT22;14820;48.682;8.890;2023-04-25T03:43:09;6.40;99.90
26224;DHT22;14820;48.682;8.890;2023-04-25T03:45:38;6.40;99.90
26224;DHT22;14820;48.682;8.890;2023-04-25T03:48:04;6.40;99.90
26224;DHT22;14820;48.682;8.890;2023-04-25T03:50:29;6.50;99.90
26224;DHT22;14820;48.682;8.890;2023-04-25T03:52:55;6.40;99.90
26224;DHT22;14820;48.682;8.890;2023-04-25T03:55:20;6.40;99.90
26224;DHT22;14820;48.682;8.890;2023-04-25T03:57:46;6.30;99.90
26224;DHT22;14820;48.682;8.890;2023-04-25T04:00:12;6.30;99.90
26224;DHT22;14820;48.682;8.890;2023-04-25T04:02:38;6.30;99.90
26224;DHT22;14820;48.682;8.890;2023-04-25T04:05:04;6.20;99.90
26224;DHT22;14820;48.682;8.890;2023-04-25T04:07:31;6.10;99.90
26224;DHT22;14820;48.682;8.890;2023-04-25T04:09:58;6.20;99.90
26224;DHT22;14820;48.682;8.890;2023-04-25T04:12:26;6.10;99.90
26224;DHT22;14820;48.682;8.890;2023-04-25T04:14:52;6.00;99.90
26224;DHT22;14820;48.682;8.890;2023-04-25T04:17:17;6.00;99.90
26224;DHT22;14820;48.682;8.890;2023-04-25T04:19:43;6.00;99.90
26224;DHT22;14820;48.682;8.890;2023-04-25T04:22:09;5.90;99.90
26224;DHT22;14820;48.682;8.890;2023-04-25T04:24:35;6.00;99.90
26224;DHT22;14820;48.682;8.890;2023-04-25T04:27:00;6.00;99.90
26224;DHT22;14820;48.682;8.890;2023-04-25T04:29:26;6.00;99.90
26224;DHT22;14820;48.682;8.890;2023-04-25T04:31:52;6.00;99.90
26224;DHT22;14820;48.682;8.890;2023-04-25T04:34:18;5.90;99.90
26224;DHT22;14820;48.682;8.890;2023-04-25T04:36:45;5.90;99.90
26224;DHT22;14820;48.682;8.890;2023-04-25T04:39:14;5.80;99.90
26224;DHT22;14820;48.682;8.890;2023-04-25T04:41:40;5.70;99.90
26224;DHT22;14820;48.682;8.890;2023-04-25T04:44:06;5.70;99.90
26224;DHT22;14820;48.682;8.890;2023-04-25T04:46:35;5.80;99.90
26224;DHT22;14820;48.682;8.890;2023-04-25T04:49:11;5.80;99.90
26224;DHT22;14820;48.682;8.890;2023-04-25T04:51:38;5.80;99.90
26224;DHT22;14820;48.682;8.890;2023-04-25T04:54:04;5.90;99.90
26224;DHT22;14820;48.682;8.890;2023-04-25T04:56:30;5.90;99.90
26224;DHT22;14820;48.682;8.890;2023-04-25T04:58:59;5.90;99.90
26224;DHT22;14820;48.682;8.890;2023-04-25T05:01:26;5.90;99.90
26224;DHT22;14820;48.682;8.890;2023-04-25T05:03:52;6.00;99.90
26224;DHT22;14820;48.682;8.890;2023-04-25T05:06:20;6.10;99.90
26224;DHT22;14820;48.682;8.890;2023-04-25T05:08:46;6.10;99.90
26224;DHT22;14820;48.682;8.890;2023-04-25T05:11:12;6.10;99.90
26224;DHT22;14820;48.682;8.890;2023-04-25T05:13:37;6.10;99.90
26224;DHT22;14820;48.682;8.890;2023-04-25T05:16:03;6.10;99.90
26224;DHT22;14820;48.682;8.890;2023-04-25T05:18:29;6.00;99.90
26224;DHT22;14820;48.682;8.890;2023-04-25T05:20:55;6.10;99.90
26224;DHT22;14820;48.682;8.890;2023-04-25T05:23:20;6.00;99.90
26224;DHT22;14820;48.682;8.890;2023-04-25T05:25:46;6.10;99.90
26224;DHT22;14820;48.682;8.890;2023-04-25T05:28:12;6.10;99.90
26224;DHT22;14820;48.682;8.890;2023-04-25T05:30:38;6.20;99.90
26224;DHT22;14820;48.682;8.890;2023-04-25T05:33:04;6.30;99.90
26224;DHT22;14820;48.682;8.890;2023-04-25T05:35:30;6.30;99.90
26224;DHT22;14820;48.682;8.890;2023-04-25T05:37:55;6.40;99.90
26224;DHT22;14820;48.682;8.890;2023-04-25T05:40:21;6.40;99.90
26224;DHT22;14820;48.682;8.890;2023-04-25T05:42:47;6.50;99.90
26224;DHT22;14820;48.682;8.890;2023-04-25T05:45:12;6.50;99.90
26224;DHT22;14820;48.682;8.890;2023-04-25T05:47:38;6.50;99.90
26224;DHT22;14820;48.682;8.890;2023-04-25T05:50:04;6.50;99.90
26224;DHT22;14820;48.682;8.890;2023-04-25T05:52:30;6.50;99.90
26224;DHT22;14820;48.682;8.890;2023-04-25T05:54:56;6.50;99.90
26224;DHT22;14820;48.682;8.890;2023-04-25T05:57:25;6.50;99.90
26224;DHT22;14820;48.682;8.890;2023-04-25T05:59:51;6.60;99.90
26224;DHT22;14820;48.682;8.890;2023-04-25T06:02:18;6.70;99.90
26224;DHT22;14820;48.682;8.890;2023-04-25T06:04:44;6.80;99.90
26224;DHT22;14820;48.682;8.890;2023-04-25T06:07:10;6.80;99.90
26224;DHT22;14820;48.682;8.890;2023-04-25T06:09:35;6.80;99.90
26224;DHT22;14820;48.682;8.890;2023-04-25T06:12:02;6.90;99.90
26224;DHT22;14820;48.682;8.890;2023-04-25T06:14:27;6.90;99.90
26224;DHT22;14820;48.682;8.890;2023-04-25T06:16:53;6.90;99.90
26224;DHT22;14820;48.682;8.890;2023-04-25T06:19:19;6.90;99.90
26224;DHT22;14820;48.682;8.890;2023-04-25T06:21:45;6.90;99.90
26224;DHT22;14820;48.682;8.890;2023-04-25T06:24:10;6.90;99.90
26224;DHT22;14820;48.682;8.890;2023-04-25T06:26:36;7.00;99.90
26224;DHT22;14820;48.682;8.890;2023-04-25T06:29:02;7.00;99.90
26224;DHT22;14820;48.682;8.890;2023-04-25T06:31:27;7.00;99.90
26224;DHT22;14820;48.682;8.890;2023-04-25T06:33:54;7.00;99.90
26224;DHT22;14820;48.682;8.890;2023-04-25T06:36:20;7.00;99.90
26224;DHT22;14820;48.682;8.890;2023-04-25T06:38:51;7.00;99.90
26224;DHT22;14820;48.682;8.890;2023-04-25T06:41:17;7.00;99.90
26224;DHT22;14820;48.682;8.890;2023-04-25T06:43:42;7.00;99.90
26224;DHT22;14820;48.682;8.890;2023-04-25T06:46:08;6.90;99.90
26224;DHT22;14820;48.682;8.890;2023-04-25T06:48:34;6.90;99.90
26224;DHT22;14820;48.682;8.890;2023-04-25T06:50:59;6.90;99.90
26224;DHT22;14820;48.682;8.890;2023-04-25T06:53:25;7.00;99.90
26224;DHT22;14820;48.682;8.890;2023-04-25T06:55:51;6.90;99.90
26224;DHT22;14820;48.682;8.890;2023-04-25T06:58:17;7.00;99.90
26224;DHT22;14820;48.682;8.890;2023-04-25T07:00:44;7.00;99.90
26224;DHT22;14820;48.682;8.890;2023-04-25T07:03:13;7.00;99.90
26224;DHT22;14820;48.682;8.890;2023-04-25T07:05:38;6.90;99.90
26224;DHT22;14820;48.682;8.890;2023-04-25T07:08:04;6.90;99.90
26224;DHT22;14820;48.682;8.890;2023-04-25T07:10:30;7.00;99.90
26224;DHT22;14820;48.682;8.890;2023-04-25T07:12:56;7.00;99.90
26224;DHT22;14820;48.682;8.890;2023-04-25T07:15:21;7.00;99.90
26224;DHT22;14820;48.682;8.890;2023-04-25T07:17:47;7.00;99.90
26224;DHT22;14820;48.682;8.890;2023-04-25T07:20:13;7.10;99.90
26224;DHT22;14820;48.682;8.890;2023-04-25T07:22:40;7.10;99.90
26224;DHT22;14820;48.682;8.890;2023-04-25T07:25:06;7.00;99.90
26224;DHT22;14820;48.682;8.890;2023-04-25T07:27:31;7.00;99.90
26224;DHT22;14820;48.682;8.890;2023-04-25T07:29:57;7.10;99.90
26224;DHT22;14820;48.682;8.890;2023-04-25T07:32:23;7.00;99.90
26224;DHT22;14820;48.682;8.890;2023-04-25T07:34:48;7.00;99.90
26224;DHT22;14820;48.682;8.890;2023-04-25T07:37:14;7.00;99.90
26224;DHT22;14820;48.682;8.890;2023-04-25T07:39:40;7.00;99.90
26224;DHT22;14820;48.682;8.890;2023-04-25T07:42:06;7.00;99.90
26224;DHT22;14820;48.682;8.890;2023-04-25T07:44:34;6.90;99.90
26224;DHT22;14820;48.682;8.890;2023-04-25T07:47:07;6.90;99.90
26224;DHT22;14820;48.682;8.890;2023-04-25T07:49:37;6.90;99.90
26224;DHT22;14820;48.682;8.890;2023-04-25T07:52:04;6.90;99.90
26224;DHT22;14820;48.682;8.890;2023-04-25T07:54:30;6.90;99.90
26224;DHT22;14820;48.682;8.890;2023-04-25T07:56:56;6.80;99.90
26224;DHT22;14820;48.682;8.890;2023-04-25T07:59:22;6.80;99.90
26224;DHT22;14820;48.682;8.890;2023-04-25T08:01:48;6.70;99.90
26224;DHT22;14820;48.682;8.890;2023-04-25T08:04:13;6.70;99.90
26224;DHT22;14820;48.682;8.890;2023-04-25T08:06:39;6.70;99.90
26224;DHT22;14820;48.682;8.890;2023-04-25T08:09:06;6.70;99.90
26224;DHT22;14820;48.682;8.890;2023-04-25T08:11:32;6.70;99.90
26224;DHT22;14820;48.682;8.890;2023-04-25T08:13:57;6.70;99.90
26224;DHT22;14820;48.682;8.890;2023-04-25T08:16:23;6.70;99.90
26224;DHT22;14820;48.682;8.890;2023-04-25T08:18:50;6.70;99.90
26224;DHT22;14820;48.682;8.890;2023-04-25T08:21:16;6.60;99.90
26224;DHT22;14820;48.682;8.890;2023-04-25T08:23:41;6.60;99.90
26224;DHT22;14820;48.682;8.890;2023-04-25T08:26:07;6.60;99.90
26224;DHT22;14820;48.682;8.890;2023-04-25T08:28:33;6.60;99.90
26224;DHT22;14820;48.682;8.890;2023-04-25T08:30:59;6.60;99.90
26224;DHT22;14820;48.682;8.890;2023-04-25T08:33:25;6.60;99.90
26224;DHT22;14820;48.682;8.890;2023-04-25T08:35:51;6.60;99.90
26224;DHT22;14820;48.682;8.890;2023-04-25T08:38:17;6.60;99.90
26224;DHT22;14820;48.682;8.890;2023-04-25T08:40:43;6.60;99.90
26224;DHT22;14820;48.682;8.890;2023-04-25T08:43:13;6.50;99.90
26224;DHT22;14820;48.682;8.890;2023-04-25T08:45:41;6.60;99.90
26224;DHT22;14820;48.682;8.890;2023-04-25T08:48:10;6.60;99.90
26224;DHT22;14820;48.682;8.890;2023-04-25T08:50:56;6.60;99.90
26224;DHT22;14820;48.682;8.890;2023-04-25T08:53:28;6.50;99.90
26224;DHT22;14820;48.682;8.890;2023-04-25T08:55:55;6.50;99.90
26224;DHT22;14820;48.682;8.890;2023-04-25T08:58:22;6.50;99.90
26224;DHT22;14820;48.682;8.890;2023-04-25T09:00:49;6.40;99.90
26224;DHT22;14820;48.682;8.890;2023-04-25T09:03:16;6.50;99.90
26224;DHT22;14820;48.682;8.890;2023-04-25T09:05:42;6.50;99.90
26224;DHT22;14820;48.682;8.890;2023-04-25T09:08:08;6.40;99.90
26224;DHT22;14820;48.682;8.890;2023-04-25T09:10:34;6.40;99.90
26224;DHT22;14820;48.682;8.890;2023-04-25T09:13:11;6.30;99.90
26224;DHT22;14820;48.682;8.890;2023-04-25T09:15:51;6.30;99.90
26224;DHT22;14820;48.682;8.890;2023-04-25T09:20:57;6.20;99.90
26224;DHT22;14820;48.682;8.890;2023-04-25T09:23:23;6.20;99.90
26224;DHT22;14820;48.682;8.890;2023-04-25T09:25:51;6.10;99.90
26224;DHT22;14820;48.682;8.890;2023-04-25T09:28:25;6.10;99.90
26224;DHT22;14820;48.682;8.890;2023-04-25T09:31:01;6.10;99.90
26224;DHT22;14820;48.682;8.890;2023-04-25T09:33:36;6.10;99.90
26224;DHT22;14820;48.682;8.890;2023-04-25T09:36:09;6.10;99.90
26224;DHT22;14820;48.682;8.890;2023-04-25T09:38:43;6.10;99.90
26224;DHT22;14820;48.682;8.890;2023-04-25T09:41:10;6.00;99.90
26224;DHT22;14820;48.682;8.890;2023-04-25T09:43:37;6.00;99.90
26224;DHT22;14820;48.682;8.890;2023-04-25T09:46:10;5.90;99.90
26224;DHT22;14820;48.682;8.890;2023-04-25T09:48:36;5.90;99.90
26224;DHT22;14820;48.682;8.890;2023-04-25T09:51:14;5.90;99.90
26224;DHT22;14820;48.682;8.890;2023-04-25T09:53:42;5.90;99.90
26224;DHT22;14820;48.682;8.890;2023-04-25T09:56:10;5.90;99.90
26224;DHT22;14820;48.682;8.890;2023-04-25T09:58:39;5.90;99.90
26224;DHT22;14820;48.682;8.890;2023-04-25T10:01:08;5.90;99.90
26224;DHT22;14820;48.682;8.890;2023-04-25T10:03:39;5.90;99.90
26224;DHT22;14820;48.682;8.890;2023-04-25T10:06:12;5.90;99.90
26224;DHT22;14820;48.682;8.890;2023-04-25T10:08:40;5.90;99.90
26224;DHT22;14820;48.682;8.890;2023-04-25T10:11:08;5.80;99.90
26224;DHT22;14820;48.682;8.890;2023-04-25T10:13:35;5.90;99.90
26224;DHT22;14820;48.682;8.890;2023-04-25T10:16:04;5.90;99.90
26224;DHT22;14820;48.682;8.890;2023-04-25T10:18:31;5.90;99.90
26224;DHT22;14820;48.682;8.890;2023-04-25T10:21:00;6.00;99.90
26224;DHT22;14820;48.682;8.890;2023-04-25T10:23:26;6.00;99.90
26224;DHT22;14820;48.682;8.890;2023-04-25T10:25:53;5.90;99.90
26224;DHT22;14820;48.682;8.890;2023-04-25T10:28:20;5.90;99.90
26224;DHT22;14820;48.682;8.890;2023-04-25T10:31:16;5.90;99.90
26224;DHT22;14820;48.682;8.890;2023-04-25T10:33:43;6.00;99.90
26224;DHT22;14820;48.682;8.890;2023-04-25T10:36:14;6.00;99.90
26224;DHT22;14820;48.682;8.890;2023-04-25T10:38:42;6.00;99.90
26224;DHT22;14820;48.682;8.890;2023-04-25T10:41:09;6.00;99.90
26224;DHT22;14820;48.682;8.890;2023-04-25T10:43:40;6.00;99.90
26224;DHT22;14820;48.682;8.890;2023-04-25T10:46:26;6.10;99.90
26224;DHT22;14820;48.682;8.890;2023-04-25T10:48:54;6.10;99.90
26224;DHT22;14820;48.682;8.890;2023-04-25T10:51:26;6.20;99.90
26224;DHT22;14820;48.682;8.890;2023-04-25T10:59:07;6.40;99.90
26224;DHT22;14820;48.682;8.890;2023-04-25T11:01:47;6.50;99.90
26224;DHT22;14820;48.682;8.890;2023-04-25T11:04:31;6.50;99.90
26224;DHT22;14820;48.682;8.890;2023-04-25T11:07:03;6.50;99.90
26224;DHT22;14820;48.682;8.890;2023-04-25T11:09:33;6.60;99.90
26224;DHT22;14820;48.682;8.890;2023-04-25T11:11:59;6.60;99.90
26224;DHT22;14820;48.682;8.890;2023-04-25T11:14:26;6.70;99.90
26224;DHT22;14820;48.682;8.890;2023-04-25T11:16:56;6.70;99.90
26224;DHT22;14820;48.682;8.890;2023-04-25T11:19:22;6.80;99.90
26224;DHT22;14820;48.682;8.890;2023-04-25T11:21:48;6.80;99.90
26224;DHT22;14820;48.682;8.890;2023-04-25T11:24:13;6.80;99.90
26224;DHT22;14820;48.682;8.890;2023-04-25T11:26:42;6.90;99.90
26224;DHT22;14820;48.682;8.890;2023-04-25T11:29:08;6.70;99.90
26224;DHT22;14820;48.682;8.890;2023-04-25T11:31:34;6.70;99.90
26224;DHT22;14820;48.682;8.890;2023-04-25T11:34:00;6.70;99.90
26224;DHT22;14820;48.682;8.890;2023-04-25T11:36:26;6.60;99.90
26224;DHT22;14820;48.682;8.890;2023-04-25T11:38:53;6.70;99.90
26224;DHT22;14820;48.682;8.890;2023-04-25T11:41:19;6.70;99.90
26224;DHT22;14820;48.682;8.890;2023-04-25T11:43:45;6.60;99.90
26224;DHT22;14820;48.682;8.890;2023-04-25T11:46:11;6.70;99.90
26224;DHT22;14820;48.682;8.890;2023-04-25T11:48:41;6.70;99.90
26224;DHT22;14820;48.682;8.890;2023-04-25T11:51:07;6.60;99.90
26224;DHT22;14820;48.682;8.890;2023-04-25T11:53:33;6.60;99.90
26224;DHT22;14820;48.682;8.890;2023-04-25T11:55:59;6.70;99.90
26224;DHT22;14820;48.682;8.890;2023-04-25T11:58:25;6.70;99.90
26224;DHT22;14820;48.682;8.890;2023-04-25T12:00:51;6.70;99.90
26224;DHT22;14820;48.682;8.890;2023-04-25T12:03:20;6.80;99.90
26224;DHT22;14820;48.682;8.890;2023-04-25T12:05:46;6.80;99.90
26224;DHT22;14820;48.682;8.890;2023-04-25T12:08:16;6.80;99.90
26224;DHT22;14820;48.682;8.890;2023-04-25T12:10:43;6.80;99.90
26224;DHT22;14820;48.682;8.890;2023-04-25T12:13:24;6.90;99.90
26224;DHT22;14820;48.682;8.890;2023-04-25T12:15:50;6.90;99.90
26224;DHT22;14820;48.682;8.890;2023-04-25T12:18:19;6.90;99.90
26224;DHT22;14820;48.682;8.890;2023-04-25T12:20:46;6.90;99.90
26224;DHT22;14820;48.682;8.890;2023-04-25T12:23:12;6.90;99.90
26224;DHT22;14820;48.682;8.890;2023-04-25T12:25:40;6.90;99.90
26224;DHT22;14820;48.682;8.890;2023-04-25T12:30:59;6.90;99.90
26224;DHT22;14820;48.682;8.890;2023-04-25T12:33:28;6.90;99.90
26224;DHT22;14820;48.682;8.890;2023-04-25T12:35:54;6.90;99.90
26224;DHT22;14820;48.682;8.890;2023-04-25T12:38:26;7.00;99.90
26224;DHT22;14820;48.682;8.890;2023-04-25T12:41:05;7.00;99.90
26224;DHT22;14820;48.682;8.890;2023-04-25T12:43:30;7.00;99.90
26224;DHT22;14820;48.682;8.890;2023-04-25T12:45:59;7.10;99.90
26224;DHT22;14820;48.682;8.890;2023-04-25T12:48:25;7.10;99.90
26224;DHT22;14820;48.682;8.890;2023-04-25T12:50:51;7.20;99.90
26224;DHT22;14820;48.682;8.890;2023-04-25T12:53:22;7.30;99.90
26224;DHT22;14820;48.682;8.890;2023-04-25T12:55:54;7.40;99.90
26224;DHT22;14820;48.682;8.890;2023-04-25T12:58:19;7.50;99.90
26224;DHT22;14820;48.682;8.890;2023-04-25T13:00:46;7.70;99.90
26224;DHT22;14820;48.682;8.890;2023-04-25T13:03:11;7.70;99.90
26224;DHT22;14820;48.682;8.890;2023-04-25T13:05:38;7.90;99.90
26224;DHT22;14820;48.682;8.890;2023-04-25T13:08:04;7.90;99.90
26224;DHT22;14820;48.682;8.890;2023-04-25T13:10:30;8.00;99.90
26224;DHT22;14820;48.682;8.890;2023-04-25T13:12:56;8.00;99.90
26224;DHT22;14820;48.682;8.890;2023-04-25T13:15:22;7.90;99.90
26224;DHT22;14820;48.682;8.890;2023-04-25T13:17:48;7.90;99.90
26224;DHT22;14820;48.682;8.890;2023-04-25T13:20:14;7.90;99.90
26224;DHT22;14820;48.682;8.890;2023-04-25T13:22:42;8.00;99.90
26224;DHT22;14820;48.682;8.890;2023-04-25T13:25:10;8.10;99.90
26224;DHT22;14820;48.682;8.890;2023-04-25T13:27:38;8.20;99.90
26224;DHT22;14820;48.682;8.890;2023-04-25T13:30:06;8.30;99.90
26224;DHT22;14820;48.682;8.890;2023-04-25T13:32:35;8.40;99.90
26224;DHT22;14820;48.682;8.890;2023-04-25T13:35:05;8.40;99.90
26224;DHT22;14820;48.682;8.890;2023-04-25T13:37:31;8.40;99.90
26224;DHT22;14820;48.682;8.890;2023-04-25T13:40:02;8.40;99.90
26224;DHT22;14820;48.682;8.890;2023-04-25T13:42:31;8.50;99.90
26224;DHT22;14820;48.682;8.890;2023-04-25T13:44:56;8.40;99.90
26224;DHT22;14820;48.682;8.890;2023-04-25T13:47:23;8.40;99.90
26224;DHT22;14820;48.682;8.890;2023-04-25T13:49:51;8.50;99.90
26224;DHT22;14820;48.682;8.890;2023-04-25T13:52:18;8.50;99.90
26224;DHT22;14820;48.682;8.890;2023-04-25T13:54:44;8.50;99.90
26224;DHT22;14820;48.682;8.890;2023-04-25T13:57:10;8.50;99.90
26224;DHT22;14820;48.682;8.890;2023-04-25T13:59:37;8.50;99.90
26224;DHT22;14820;48.682;8.890;2023-04-25T14:02:03;8.50;99.90
26224;DHT22;14820;48.682;8.890;2023-04-25T14:04:28;8.50;99.90
26224;DHT22;14820;48.682;8.890;2023-04-25T14:06:55;8.60;99.90
26224;DHT22;14820;48.682;8.890;2023-04-25T14:09:21;8.60;99.90
26224;DHT22;14820;48.682;8.890;2023-04-25T14:11:54;8.60;99.90
26224;DHT22;14820;48.682;8.890;2023-04-25T14:14:21;8.70;99.90
26224;DHT22;14820;48.682;8.890;2023-04-25T14:16:47;8.70;99.90
26224;DHT22;14820;48.682;8.890;2023-04-25T14:19:14;8.70;99.90
26224;DHT22;14820;48.682;8.890;2023-04-25T14:21:40;8.70;99.90
26224;DHT22;14820;48.682;8.890;2023-04-25T14:24:06;8.70;99.90
26224;DHT22;14820;48.682;8.890;2023-04-25T14:26:33;8.70;99.90
26224;DHT22;14820;48.682;8.890;2023-04-25T14:29:05;8.70;99.90
26224;DHT22;14820;48.682;8.890;2023-04-25T14:31:31;8.80;99.90
26224;DHT22;14820;48.682;8.890;2023-04-25T14:33:58;8.70;99.90
26224;DHT22;14820;48.682;8.890;2023-04-25T14:36:24;8.80;99.90
26224;DHT22;14820;48.682;8.890;2023-04-25T14:38:51;8.70;99.90
26224;DHT22;14820;48.682;8.890;2023-04-25T14:41:17;8.70;99.90
26224;DHT22;14820;48.682;8.890;2023-04-25T14:43:43;8.70;99.90
26224;DHT22;14820;48.682;8.890;2023-04-25T14:46:10;8.70;99.90
26224;DHT22;14820;48.682;8.890;2023-04-25T14:48:36;8.70;99.90
26224;DHT22;14820;48.682;8.890;2023-04-25T14:51:02;8.70;99.90
26224;DHT22;14820;48.682;8.890;2023-04-25T14:53:27;8.80;99.90
26224;DHT22;14820;48.682;8.890;2023-04-25T14:55:53;8.90;99.90
26224;DHT22;14820;48.682;8.890;2023-04-25T14:58:19;9.00;99.90
26224;DHT22;14820;48.682;8.890;2023-04-25T15:00:46;9.20;99.90
26224;DHT22;14820;48.682;8.890;2023-04-25T15:03:11;9.20;99.90
26224;DHT22;14820;48.682;8.890;2023-04-25T15:05:39;9.40;99.90
26224;DHT22;14820;48.682;8.890;2023-04-25T15:08:05;9.50;99.90
26224;DHT22;14820;48.682;8.890;2023-04-25T15:10:31;9.50;99.90
26224;DHT22;14820;48.682;8.890;2023-04-25T15:12:57;9.60;99.90
26224;DHT22;14820;48.682;8.890;2023-04-25T15:15:22;9.40;99.90
26224;DHT22;14820;48.682;8.890;2023-04-25T15:17:49;9.40;99.90
26224;DHT22;14820;48.682;8.890;2023-04-25T15:20:15;9.50;99.90
26224;DHT22;14820;48.682;8.890;2023-04-25T15:22:46;9.60;99.90
26224;DHT22;14820;48.682;8.890;2023-04-25T15:25:14;9.70;99.90
26224;DHT22;14820;48.682;8.890;2023-04-25T15:27:41;9.70;99.90
26224;DHT22;14820;48.682;8.890;2023-04-25T15:30:12;9.60;99.90
26224;DHT22;14820;48.682;8.890;2023-04-25T15:32:43;9.60;99.90
26224;DHT22;14820;48.682;8.890;2023-04-25T15:35:11;9.60;99.90
26224;DHT22;14820;48.682;8.890;2023-04-25T15:37:37;9.60;99.90
26224;DHT22;14820;48.682;8.890;2023-04-25T15:40:08;9.70;99.90
26224;DHT22;14820;48.682;8.890;2023-04-25T15:42:35;9.70;99.90
26224;DHT22;14820;48.682;8.890;2023-04-25T15:45:05;9.80;99.90
26224;DHT22;14820;48.682;8.890;2023-04-25T15:47:32;9.80;99.90
26224;DHT22;14820;48.682;8.890;2023-04-25T15:49:58;9.70;99.90
26224;DHT22;14820;48.682;8.890;2023-04-25T15:52:24;9.60;99.90
26224;DHT22;14820;48.682;8.890;2023-04-25T15:54:50;9.60;99.90